Time;durP1;ratioP1;P1;durP2;ratioP2;P2;SDS_P1;SDS_P2;PMS_P1;PMS_P2;Temp;Humidity;BMP_temperature;BMP_pressure;BME280_temperature;BME280_humidity;BME280_pressure;Samples;Min_cycle;Max_cycle;Signal;HPM_P1;HPM_P2
2022/04/08 00:01:18;;;;;;;;;;;4.90;99.90;;;;;;5092649;28;20590;-76
2022/04/08 00:03:46;;;;;;;;;;;4.80;99.90;;;;;;5094336;28;19920;-78
2022/04/08 00:06:12;;;;;;;;;;;4.80;99.90;;;;;;5094753;28;19915;-78
2022/04/08 00:08:38;;;;;;;;;;;4.70;99.90;;;;;;5094923;28;19908;-77
2022/04/08 00:11:03;;;;;;;;;;;4.60;99.90;;;;;;5094474;28;20354;-78
2022/04/08 00:13:29;;;;;;;;;;;4.60;99.90;;;;;;5094427;28;19924;-78
2022/04/08 00:15:54;;;;;;;;;;;4.60;99.90;;;;;;5093789;28;20415;-77
2022/04/08 00:18:20;;;;;;;;;;;4.60;99.90;;;;;;5095173;28;19908;-77
2022/04/08 00:20:46;;;;;;;;;;;4.50;99.90;;;;;;5101178;28;19908;-76
2022/04/08 00:23:12;;;;;;;;;;;4.60;99.90;;;;;;5094906;28;19908;-77
2022/04/08 00:25:38;;;;;;;;;;;4.40;99.90;;;;;;5094138;28;19908;-76
2022/04/08 00:28:04;;;;;;;;;;;4.40;99.90;;;;;;5093245;28;19908;-77
2022/04/08 00:30:29;;;;;;;;;;;4.40;99.90;;;;;;5094042;28;20415;-76
2022/04/08 00:32:58;;;;;;;;;;;4.30;99.90;;;;;;5093526;28;20357;-77
2022/04/08 00:35:24;;;;;;;;;;;4.20;99.90;;;;;;5094199;28;19965;-77
2022/04/08 00:37:50;;;;;;;;;;;4.10;99.90;;;;;;5093110;28;19912;-76
2022/04/08 00:40:16;;;;;;;;;;;4.00;99.90;;;;;;5093695;28;19998;-76
2022/04/08 00:42:43;;;;;;;;;;;4.00;99.90;;;;;;5093507;28;19923;-75
2022/04/08 00:45:08;;;;;;;;;;;3.90;99.90;;;;;;5093650;28;19965;-76
2022/04/08 00:47:36;;;;;;;;;;;3.90;99.90;;;;;;5093555;28;20303;-76
2022/04/08 00:50:03;;;;;;;;;;;3.90;99.90;;;;;;5092839;28;20145;-76
2022/04/08 00:52:29;;;;;;;;;;;3.90;99.90;;;;;;5093716;28;19912;-76
2022/04/08 00:54:56;;;;;;;;;;;3.90;99.90;;;;;;5093018;28;20361;-76
2022/04/08 00:57:21;;;;;;;;;;;3.80;99.90;;;;;;5093400;28;19908;-76
2022/04/08 00:59:48;;;;;;;;;;;3.90;99.90;;;;;;5092929;28;19909;-75
2022/04/08 01:02:15;;;;;;;;;;;3.90;99.90;;;;;;5093690;28;20384;-76
2022/04/08 01:04:41;;;;;;;;;;;3.80;99.90;;;;;;5093111;28;19974;-76
2022/04/08 01:07:06;;;;;;;;;;;3.80;99.90;;;;;;5093242;28;19912;-76
2022/04/08 01:09:32;;;;;;;;;;;3.80;99.90;;;;;;5093353;28;19908;-76
2022/04/08 01:11:58;;;;;;;;;;;3.80;99.90;;;;;;5092426;28;19963;-76
2022/04/08 01:14:23;;;;;;;;;;;3.90;99.90;;;;;;5093231;28;20283;-76
2022/04/08 01:16:49;;;;;;;;;;;3.80;99.90;;;;;;5092754;28;19919;-76
2022/04/08 01:19:14;;;;;;;;;;;3.80;99.90;;;;;;5093211;28;20269;-75
2022/04/08 01:21:40;;;;;;;;;;;3.80;99.90;;;;;;5093116;28;19908;-76
2022/04/08 01:24:08;;;;;;;;;;;3.90;99.90;;;;;;5092414;28;19916;-76
2022/04/08 01:26:34;;;;;;;;;;;3.80;99.90;;;;;;5092903;28;19908;-76
2022/04/08 01:28:59;;;;;;;;;;;3.80;99.90;;;;;;5092583;28;19912;-76
2022/04/08 01:31:29;;;;;;;;;;;3.70;99.90;;;;;;5091893;28;19908;-76
2022/04/08 01:33:55;;;;;;;;;;;3.70;99.90;;;;;;5092951;28;19912;-76
2022/04/08 01:36:20;;;;;;;;;;;3.70;99.90;;;;;;5092987;28;20474;-76
2022/04/08 01:38:46;;;;;;;;;;;3.50;99.90;;;;;;5103931;28;19908;-75
2022/04/08 01:41:11;;;;;;;;;;;3.50;99.90;;;;;;5097126;28;19938;-75
2022/04/08 01:43:37;;;;;;;;;;;3.50;99.90;;;;;;5093166;28;19909;-75
2022/04/08 01:46:03;;;;;;;;;;;3.50;99.90;;;;;;5092544;28;19908;-75
2022/04/08 01:48:28;;;;;;;;;;;3.30;99.90;;;;;;5092476;28;20012;-75
2022/04/08 01:50:54;;;;;;;;;;;3.30;99.90;;;;;;5092357;28;19914;-75
2022/04/08 01:53:19;;;;;;;;;;;3.20;99.90;;;;;;5091546;28;19916;-75
2022/04/08 01:55:45;;;;;;;;;;;3.10;99.90;;;;;;5092682;28;19954;-74
2022/04/08 01:58:10;;;;;;;;;;;3.10;99.90;;;;;;5092487;28;19966;-75
2022/04/08 02:00:36;;;;;;;;;;;3.10;99.90;;;;;;5092938;28;19908;-75
2022/04/08 02:03:02;;;;;;;;;;;3.10;99.90;;;;;;5093933;28;20353;-75
2022/04/08 02:05:28;;;;;;;;;;;3.10;99.90;;;;;;5096958;28;19908;-75
2022/04/08 02:07:54;;;;;;;;;;;3.00;99.90;;;;;;5096281;28;19940;-75
2022/04/08 02:10:19;;;;;;;;;;;3.00;99.90;;;;;;5096858;28;19912;-75
2022/04/08 02:12:45;;;;;;;;;;;3.00;99.90;;;;;;5096818;28;19957;-76
2022/04/08 02:15:11;;;;;;;;;;;3.00;99.90;;;;;;5096478;28;19963;-75
2022/04/08 02:17:36;;;;;;;;;;;3.00;99.90;;;;;;5095222;28;20346;-75
2022/04/08 02:20:04;;;;;;;;;;;3.00;99.90;;;;;;5096156;28;19908;-75
2022/04/08 02:22:30;;;;;;;;;;;3.10;99.90;;;;;;5095505;28;19916;-75
2022/04/08 02:24:57;;;;;;;;;;;3.00;99.90;;;;;;5095600;28;20388;-75
2022/04/08 02:27:23;;;;;;;;;;;3.00;99.90;;;;;;5096464;28;19958;-75
2022/04/08 02:29:49;;;;;;;;;;;2.80;99.90;;;;;;5096094;28;19955;-75
2022/04/08 02:32:14;;;;;;;;;;;2.70;99.90;;;;;;5096423;28;19912;-75
2022/04/08 02:34:40;;;;;;;;;;;2.70;99.90;;;;;;5094704;28;19920;-75
2022/04/08 02:37:06;;;;;;;;;;;2.70;99.90;;;;;;5095478;28;19908;-75
2022/04/08 02:39:32;;;;;;;;;;;2.70;99.90;;;;;;5096032;28;19931;-75
2022/04/08 02:41:58;;;;;;;;;;;2.80;99.90;;;;;;5094354;28;19912;-75
2022/04/08 02:44:23;;;;;;;;;;;2.90;99.90;;;;;;5095952;28;19908;-75
2022/04/08 02:46:49;;;;;;;;;;;2.90;99.90;;;;;;5095889;28;20344;-76
2022/04/08 02:49:14;;;;;;;;;;;2.80;99.90;;;;;;5095295;28;19912;-76
2022/04/08 02:51:40;;;;;;;;;;;2.70;99.90;;;;;;5095879;28;19999;-77
2022/04/08 02:54:05;;;;;;;;;;;2.60;99.90;;;;;;5095500;28;20003;-77
2022/04/08 02:56:31;;;;;;;;;;;2.50;99.90;;;;;;5100602;28;19915;-77
2022/04/08 02:59:00;;;;;;;;;;;2.50;99.90;;;;;;5106766;28;19935;-76
2022/04/08 03:01:26;;;;;;;;;;;2.50;99.90;;;;;;5095785;28;19916;-76
2022/04/08 03:03:51;;;;;;;;;;;2.40;99.90;;;;;;5095765;28;20273;-76
2022/04/08 03:06:17;;;;;;;;;;;2.40;99.90;;;;;;5095848;28;19912;-76
2022/04/08 03:08:42;;;;;;;;;;;2.30;99.90;;;;;;5095884;28;19916;-76
2022/04/08 03:11:08;;;;;;;;;;;2.20;99.90;;;;;;5095083;28;19908;-76
2022/04/08 03:13:35;;;;;;;;;;;2.20;99.90;;;;;;5095347;28;19912;-76
2022/04/08 03:16:01;;;;;;;;;;;2.20;99.90;;;;;;5094929;28;19912;-76
2022/04/08 03:18:26;;;;;;;;;;;2.10;99.90;;;;;;5095710;28;20395;-76
2022/04/08 03:20:52;;;;;;;;;;;2.10;99.90;;;;;;5095062;28;20388;-75
2022/04/08 03:23:17;;;;;;;;;;;2.10;99.90;;;;;;5095386;28;19966;-76
2022/04/08 03:25:43;;;;;;;;;;;2.00;99.90;;;;;;5095453;28;19908;-76
2022/04/08 03:28:09;;;;;;;;;;;2.00;99.90;;;;;;5094930;28;19915;-76
2022/04/08 03:30:35;;;;;;;;;;;2.00;99.90;;;;;;5095184;28;19908;-76
2022/04/08 03:33:00;;;;;;;;;;;2.00;99.90;;;;;;5094641;28;20372;-76
2022/04/08 03:35:26;;;;;;;;;;;2.00;99.90;;;;;;5095372;28;19912;-76
2022/04/08 03:37:52;;;;;;;;;;;1.90;99.90;;;;;;5095523;28;19908;-76
2022/04/08 03:40:17;;;;;;;;;;;1.90;99.90;;;;;;5094909;28;19939;-76
2022/04/08 03:42:43;;;;;;;;;;;1.90;99.90;;;;;;5095126;28;20319;-76
2022/04/08 03:45:09;;;;;;;;;;;1.90;99.90;;;;;;5094680;28;19985;-76
2022/04/08 03:47:34;;;;;;;;;;;1.90;99.90;;;;;;5095175;28;19908;-76
2022/04/08 03:50:00;;;;;;;;;;;2.00;99.90;;;;;;5094599;28;19912;-76
2022/04/08 03:52:29;;;;;;;;;;;1.90;99.90;;;;;;5095160;28;19919;-76
2022/04/08 03:54:55;;;;;;;;;;;1.80;99.90;;;;;;5094404;28;19938;-75
2022/04/08 03:57:20;;;;;;;;;;;1.80;99.90;;;;;;5094806;28;19912;-76
2022/04/08 03:59:47;;;;;;;;;;;1.80;99.90;;;;;;5094750;28;19912;-76
2022/04/08 04:02:13;;;;;;;;;;;1.80;99.90;;;;;;5094003;28;19920;-77
2022/04/08 04:04:38;;;;;;;;;;;1.70;99.90;;;;;;5094713;28;19915;-76
2022/04/08 04:07:04;;;;;;;;;;;1.60;99.90;;;;;;5093947;28;20285;-76
2022/04/08 04:09:30;;;;;;;;;;;1.70;99.90;;;;;;5094927;28;20372;-77
2022/04/08 04:11:56;;;;;;;;;;;1.70;99.90;;;;;;5094376;28;19912;-76
2022/04/08 04:14:21;;;;;;;;;;;1.70;99.90;;;;;;5093822;28;19916;-77
2022/04/08 04:16:47;;;;;;;;;;;1.70;99.90;;;;;;5094766;28;19970;-77
2022/04/08 04:19:12;;;;;;;;;;;1.70;99.90;;;;;;5093958;28;19915;-76
2022/04/08 04:21:38;;;;;;;;;;;1.80;99.90;;;;;;5094564;28;19908;-77
2022/04/08 04:24:04;;;;;;;;;;;1.80;99.90;;;;;;5093998;28;19912;-77
2022/04/08 04:26:29;;;;;;;;;;;1.90;99.90;;;;;;5093045;28;19919;-76
2022/04/08 04:28:55;;;;;;;;;;;1.90;99.90;;;;;;5094056;28;19909;-76
2022/04/08 04:31:21;;;;;;;;;;;2.00;99.90;;;;;;5093758;28;19910;-77
2022/04/08 04:33:46;;;;;;;;;;;2.00;99.90;;;;;;5093828;28;20291;-77
2022/04/08 04:36:12;;;;;;;;;;;2.00;99.90;;;;;;5093379;28;19912;-76
2022/04/08 04:38:38;;;;;;;;;;;2.00;99.90;;;;;;5094184;28;19912;-77
2022/04/08 04:41:03;;;;;;;;;;;2.00;99.90;;;;;;5093188;28;19953;-76
2022/04/08 04:43:31;;;;;;;;;;;2.10;99.90;;;;;;5093681;28;19912;-77
2022/04/08 04:45:56;;;;;;;;;;;2.10;99.90;;;;;;5093670;28;19915;-77
2022/04/08 04:48:22;;;;;;;;;;;2.20;99.90;;;;;;5093130;28;19908;-76
2022/04/08 04:50:48;;;;;;;;;;;2.20;99.90;;;;;;5093913;28;20341;-77
2022/04/08 04:53:14;;;;;;;;;;;2.20;99.90;;;;;;5092954;28;19981;-77
2022/04/08 04:55:39;;;;;;;;;;;2.30;99.90;;;;;;5093870;28;19955;-76
2022/04/08 04:58:05;;;;;;;;;;;2.30;99.90;;;;;;5092065;28;19966;-76
2022/04/08 05:00:31;;;;;;;;;;;2.30;99.90;;;;;;5093691;28;19915;-76
2022/04/08 05:02:56;;;;;;;;;;;2.30;99.90;;;;;;5093640;28;19973;-77
2022/04/08 05:05:22;;;;;;;;;;;2.20;99.90;;;;;;5093019;28;20315;-77
2022/04/08 05:07:48;;;;;;;;;;;2.20;99.90;;;;;;5093567;28;19963;-77
2022/04/08 05:10:13;;;;;;;;;;;2.10;99.90;;;;;;5093019;28;19908;-77
2022/04/08 05:12:39;;;;;;;;;;;2.10;99.90;;;;;;5093256;28;20018;-76
2022/04/08 05:15:06;;;;;;;;;;;2.10;99.90;;;;;;5092599;28;20383;-76
2022/04/08 05:17:35;;;;;;;;;;;2.10;99.90;;;;;;5093429;28;20250;-76
2022/04/08 05:20:01;;;;;;;;;;;2.00;99.90;;;;;;5093255;28;19961;-76
2022/04/08 05:22:26;;;;;;;;;;;2.10;99.90;;;;;;5092979;28;19916;-76
2022/04/08 05:24:52;;;;;;;;;;;2.10;99.90;;;;;;5093207;28;19908;-76
2022/04/08 05:27:18;;;;;;;;;;;2.00;99.90;;;;;;5092584;28;19953;-77
2022/04/08 05:29:43;;;;;;;;;;;2.00;99.90;;;;;;5092930;28;19909;-77
2022/04/08 05:32:09;;;;;;;;;;;2.00;99.90;;;;;;5094529;28;19916;-77
2022/04/08 05:34:34;;;;;;;;;;;2.00;99.90;;;;;;5100568;28;19957;-77
2022/04/08 05:37:00;;;;;;;;;;;2.00;99.90;;;;;;5092918;28;19908;-77
2022/04/08 05:39:25;;;;;;;;;;;2.00;99.90;;;;;;5091312;28;20007;-76
2022/04/08 05:41:51;;;;;;;;;;;2.00;99.90;;;;;;5093154;28;19914;-77
2022/04/08 05:44:16;;;;;;;;;;;2.10;99.90;;;;;;5092429;28;19916;-77
2022/04/08 05:46:43;;;;;;;;;;;2.10;99.90;;;;;;5093075;28;19912;-76
2022/04/08 05:49:09;;;;;;;;;;;2.10;99.90;;;;;;5092167;28;19944;-76
2022/04/08 05:51:35;;;;;;;;;;;2.10;99.90;;;;;;5093227;28;19915;-77
2022/04/08 05:54:00;;;;;;;;;;;2.10;99.90;;;;;;5091683;28;19994;-77
2022/04/08 05:56:26;;;;;;;;;;;2.10;99.90;;;;;;5091972;28;19915;-77
2022/04/08 05:58:51;;;;;;;;;;;2.20;99.90;;;;;;5092936;28;20045;-77
2022/04/08 06:01:17;;;;;;;;;;;2.20;99.90;;;;;;5091914;28;19908;-77
2022/04/08 06:03:42;;;;;;;;;;;2.30;99.90;;;;;;5092236;28;20377;-77
2022/04/08 06:06:08;;;;;;;;;;;2.30;99.90;;;;;;5092271;28;19934;-76
2022/04/08 06:08:34;;;;;;;;;;;2.40;99.90;;;;;;5092635;28;20413;-77
2022/04/08 06:10:59;;;;;;;;;;;2.40;99.90;;;;;;5092888;28;20006;-78
2022/04/08 06:13:26;;;;;;;;;;;2.50;99.90;;;;;;5092098;28;19944;-78
2022/04/08 06:15:52;;;;;;;;;;;2.60;99.90;;;;;;5092750;28;19920;-77
2022/04/08 06:18:21;;;;;;;;;;;2.70;99.90;;;;;;5092329;28;19912;-77
2022/04/08 06:20:47;;;;;;;;;;;2.80;99.90;;;;;;5092571;28;20395;-78
2022/04/08 06:23:12;;;;;;;;;;;2.80;99.90;;;;;;5090601;28;19998;-77
2022/04/08 06:25:38;;;;;;;;;;;2.90;99.90;;;;;;5092729;28;19908;-78
2022/04/08 06:28:04;;;;;;;;;;;3.00;99.90;;;;;;5092190;28;19991;-78
2022/04/08 06:30:31;;;;;;;;;;;3.10;99.90;;;;;;5092015;28;19915;-77
2022/04/08 06:32:56;;;;;;;;;;;3.20;99.90;;;;;;5092170;28;19912;-77
2022/04/08 06:35:22;;;;;;;;;;;3.30;99.90;;;;;;5091955;28;20323;-77
2022/04/08 06:37:48;;;;;;;;;;;3.30;99.90;;;;;;5091918;28;19908;-77
2022/04/08 06:40:13;;;;;;;;;;;3.50;99.90;;;;;;5091158;28;19908;-78
2022/04/08 06:42:39;;;;;;;;;;;3.70;99.90;;;;;;5092368;28;20404;-77
2022/04/08 06:45:06;;;;;;;;;;;3.70;99.90;;;;;;5092135;28;19953;-77
2022/04/08 06:47:31;;;;;;;;;;;3.90;99.90;;;;;;5091898;28;20014;-77
2022/04/08 06:49:57;;;;;;;;;;;4.00;99.90;;;;;;5095034;28;20417;-77
2022/04/08 06:52:23;;;;;;;;;;;4.10;99.90;;;;;;5095434;28;19912;-77
2022/04/08 06:54:48;;;;;;;;;;;4.10;99.90;;;;;;5095812;28;19912;-77
2022/04/08 06:57:14;;;;;;;;;;;4.20;99.90;;;;;;5095041;28;19908;-77
2022/04/08 06:59:41;;;;;;;;;;;4.30;99.90;;;;;;5095836;28;19912;-77
2022/04/08 07:02:07;;;;;;;;;;;4.40;99.90;;;;;;5095123;28;19924;-77
2022/04/08 07:04:33;;;;;;;;;;;4.50;99.90;;;;;;5095397;28;19957;-77
2022/04/08 07:06:58;;;;;;;;;;;4.60;99.90;;;;;;5095592;28;19912;-78
2022/04/08 07:09:24;;;;;;;;;;;4.80;99.90;;;;;;5094669;28;20022;-77
2022/04/08 07:11:49;;;;;;;;;;;4.90;99.90;;;;;;5095580;28;20322;-78
2022/04/08 07:14:15;;;;;;;;;;;4.90;99.90;;;;;;5093692;28;19912;-78
2022/04/08 07:16:43;;;;;;;;;;;5.00;99.90;;;;;;5095369;28;19909;-77
2022/04/08 07:19:13;;;;;;;;;;;5.00;99.90;;;;;;5095078;28;19995;-76
2022/04/08 07:21:38;;;;;;;;;;;5.10;99.90;;;;;;5095709;28;20304;-77
2022/04/08 07:24:04;;;;;;;;;;;5.20;99.90;;;;;;5095072;28;19922;-77
2022/04/08 07:26:30;;;;;;;;;;;5.20;99.90;;;;;;5094479;28;19914;-77
2022/04/08 07:28:55;;;;;;;;;;;5.30;99.90;;;;;;5095287;28;19918;-77
2022/04/08 07:31:21;;;;;;;;;;;5.30;99.90;;;;;;5094385;28;19958;-76
2022/04/08 07:33:47;;;;;;;;;;;5.40;99.90;;;;;;5094742;28;19912;-78
2022/04/08 07:36:13;;;;;;;;;;;5.40;99.90;;;;;;5094189;28;20022;-76
2022/04/08 07:38:39;;;;;;;;;;;5.50;99.90;;;;;;5094907;28;19915;-77
2022/04/08 07:41:04;;;;;;;;;;;5.50;99.90;;;;;;5094745;28;20003;-77
2022/04/08 07:43:30;;;;;;;;;;;5.70;99.90;;;;;;5094435;28;19908;-77
2022/04/08 07:45:55;;;;;;;;;;;5.80;99.90;;;;;;5094835;28;19908;-78
2022/04/08 07:48:21;;;;;;;;;;;5.90;99.90;;;;;;5093171;28;19912;-78
2022/04/08 07:50:47;;;;;;;;;;;6.00;99.90;;;;;;5094951;28;20273;-75
2022/04/08 07:53:12;;;;;;;;;;;6.00;99.90;;;;;;5094180;28;19916;-75
2022/04/08 07:55:39;;;;;;;;;;;6.10;99.90;;;;;;5094355;28;19931;-76
2022/04/08 07:58:05;;;;;;;;;;;6.00;99.90;;;;;;5094542;28;19915;-76
2022/04/08 08:00:32;;;;;;;;;;;6.10;99.90;;;;;;5092696;28;20099;-76
2022/04/08 08:02:58;;;;;;;;;;;6.20;99.90;;;;;;5094286;28;19920;-76
2022/04/08 08:05:24;;;;;;;;;;;6.20;99.90;;;;;;5092890;28;19908;-75
2022/04/08 08:07:51;;;;;;;;;;;6.30;99.90;;;;;;5094362;28;19947;-76
2022/04/08 08:10:18;;;;;;;;;;;6.50;99.90;;;;;;5093819;28;20398;-77
2022/04/08 08:12:43;;;;;;;;;;;6.60;99.90;;;;;;5094173;28;19957;-78
2022/04/08 08:15:09;;;;;;;;;;;6.60;99.90;;;;;;5094365;28;20008;-76
2022/04/08 08:17:35;;;;;;;;;;;6.80;99.90;;;;;;5093244;28;19912;-76
2022/04/08 08:20:01;;;;;;;;;;;6.80;99.90;;;;;;5094199;28;19953;-77
2022/04/08 08:22:26;;;;;;;;;;;6.90;99.90;;;;;;5093437;28;19915;-76
2022/04/08 08:24:52;;;;;;;;;;;6.90;99.90;;;;;;5093816;28;19947;-76
2022/04/08 08:27:17;;;;;;;;;;;7.00;99.90;;;;;;5093065;28;19908;-76
2022/04/08 08:29:43;;;;;;;;;;;7.10;99.90;;;;;;5093468;28;19953;-76
2022/04/08 08:32:08;;;;;;;;;;;7.10;99.90;;;;;;5093229;28;20250;-77
2022/04/08 08:34:34;;;;;;;;;;;7.20;99.90;;;;;;5092986;28;19996;-77
2022/04/08 08:36:59;;;;;;;;;;;7.20;99.90;;;;;;5093410;28;19981;-77
2022/04/08 08:39:26;;;;;;;;;;;7.20;99.90;;;;;;5093951;28;19908;-77
2022/04/08 08:41:52;;;;;;;;;;;7.30;99.90;;;;;;5093606;28;19908;-77
2022/04/08 08:44:19;;;;;;;;;;;7.30;99.90;;;;;;5092618;28;19908;-76
2022/04/08 08:46:44;;;;;;;;;;;7.30;99.90;;;;;;5093001;28;19908;-76
2022/04/08 08:49:11;;;;;;;;;;;7.50;99.90;;;;;;5092632;28;20013;-76
2022/04/08 08:51:38;;;;;;;;;;;7.70;99.90;;;;;;5091902;28;20003;-76
2022/04/08 08:54:04;;;;;;;;;;;7.70;99.90;;;;;;5093226;28;19916;-77
2022/04/08 08:56:30;;;;;;;;;;;7.80;99.90;;;;;;5091007;28;19916;-77
2022/04/08 08:58:55;;;;;;;;;;;7.80;99.90;;;;;;5092845;28;19931;-76
2022/04/08 09:01:21;;;;;;;;;;;7.80;99.90;;;;;;5092159;28;19912;-76
2022/04/08 09:03:46;;;;;;;;;;;7.90;99.90;;;;;;5092408;28;19920;-77
2022/04/08 09:06:12;;;;;;;;;;;7.80;99.90;;;;;;5092606;28;19915;-76
2022/04/08 09:08:38;;;;;;;;;;;7.90;99.90;;;;;;5092014;28;19914;-77
2022/04/08 09:11:04;;;;;;;;;;;8.00;99.90;;;;;;5092308;28;19908;-77
2022/04/08 09:13:30;;;;;;;;;;;8.00;99.90;;;;;;5092095;28;19967;-76
2022/04/08 09:15:56;;;;;;;;;;;8.00;99.90;;;;;;5092818;28;20357;-76
2022/04/08 09:18:21;;;;;;;;;;;8.10;99.90;;;;;;5092427;28;19912;-76
2022/04/08 09:20:50;;;;;;;;;;;8.20;99.90;;;;;;5093279;28;20357;-76
2022/04/08 09:23:17;;;;;;;;;;;8.20;99.90;;;;;;5092784;28;20365;-76
2022/04/08 09:25:42;;;;;;;;;;;8.30;99.90;;;;;;5091793;28;19916;-76
2022/04/08 09:28:10;;;;;;;;;;;8.10;99.90;;;;;;5093104;28;19913;-76
2022/04/08 09:30:36;;;;;;;;;;;8.20;99.90;;;;;;5092238;28;20502;-76
2022/04/08 09:33:18;;;;;;;;;;;8.30;99.90;;;;;;5093146;28;19973;-77
2022/04/08 09:35:45;;;;;;;;;;;8.40;99.90;;;;;;5092897;28;20366;-76
2022/04/08 09:38:10;;;;;;;;;;;8.50;99.90;;;;;;5092835;28;20005;-77
2022/04/08 09:40:39;;;;;;;;;;;8.60;99.90;;;;;;5092205;28;19939;-77
2022/04/08 09:43:05;;;;;;;;;;;8.60;99.90;;;;;;5091701;28;19908;-77
2022/04/08 09:45:31;;;;;;;;;;;8.60;99.90;;;;;;5092067;28;20273;-77
2022/04/08 09:48:00;;;;;;;;;;;8.60;99.90;;;;;;5092962;28;19916;-77
2022/04/08 09:50:26;;;;;;;;;;;8.40;99.90;;;;;;5092190;28;19915;-76
2022/04/08 09:52:53;;;;;;;;;;;8.40;99.90;;;;;;5092675;28;19912;-77
2022/04/08 09:55:19;;;;;;;;;;;8.50;99.90;;;;;;5092520;28;19934;-77
2022/04/08 09:57:46;;;;;;;;;;;8.70;99.90;;;;;;5093810;28;19908;-77
2022/04/08 10:00:12;;;;;;;;;;;8.90;99.90;;;;;;5092849;28;19908;-77
2022/04/08 10:02:41;;;;;;;;;;;9.00;99.90;;;;;;5091484;28;19981;-76
2022/04/08 10:05:07;;;;;;;;;;;9.00;99.90;;;;;;5092811;28;19908;-77
2022/04/08 10:07:33;;;;;;;;;;;9.20;99.90;;;;;;5092235;28;19908;-76
2022/04/08 10:10:20;;;;;;;;;;;9.10;99.90;;;;;;5092490;28;20379;-77
2022/04/08 10:12:54;;;;;;;;;;;8.90;99.90;;;;;;5092446;28;20281;-77
2022/04/08 10:15:26;;;;;;;;;;;8.70;99.90;;;;;;5092287;28;19961;-76
2022/04/08 10:17:56;;;;;;;;;;;8.60;99.90;;;;;;5092915;28;20003;-77
2022/04/08 10:20:22;;;;;;;;;;;8.70;99.90;;;;;;5092082;28;20368;-76
2022/04/08 10:22:48;;;;;;;;;;;8.80;99.90;;;;;;5092389;28;19908;-77
2022/04/08 10:25:18;;;;;;;;;;;8.60;99.90;;;;;;5096328;28;19961;-78
2022/04/08 10:27:44;;;;;;;;;;;8.60;99.90;;;;;;5096035;28;19914;-77
2022/04/08 10:30:23;;;;;;;;;;;8.50;99.90;;;;;;5096207;28;20384;-77
2022/04/08 10:33:01;;;;;;;;;;;8.50;99.90;;;;;;5096068;28;20311;-78
2022/04/08 10:35:27;;;;;;;;;;;8.50;99.90;;;;;;5095891;28;20299;-77
2022/04/08 10:37:57;;;;;;;;;;;8.40;99.90;;;;;;5096151;28;19952;-77
2022/04/08 10:40:28;;;;;;;;;;;8.30;99.90;;;;;;5095364;28;20378;-77
2022/04/08 10:42:57;;;;;;;;;;;8.20;99.90;;;;;;5096393;28;19908;-77
2022/04/08 10:45:23;;;;;;;;;;;8.10;99.90;;;;;;5095236;28;20364;-76
2022/04/08 10:47:48;;;;;;;;;;;8.00;99.90;;;;;;5096136;28;19908;-76
2022/04/08 10:50:27;;;;;;;;;;;7.90;99.90;;;;;;5096176;28;19908;-76
2022/04/08 10:53:12;;;;;;;;;;;8.00;99.90;;;;;;5095409;28;20044;-76
2022/04/08 10:55:51;;;;;;;;;;;8.20;99.90;;;;;;5094939;28;20323;-76
2022/04/08 10:58:30;;;;;;;;;;;8.40;99.90;;;;;;5095337;28;19908;-76
2022/04/08 11:00:56;;;;;;;;;;;8.60;99.90;;;;;;5095247;28;19908;-76
2022/04/08 11:03:25;;;;;;;;;;;8.80;99.90;;;;;;5094366;28;20006;-76
2022/04/08 11:05:51;;;;;;;;;;;8.90;99.90;;;;;;5095315;28;19916;-76
2022/04/08 11:08:17;;;;;;;;;;;9.00;99.90;;;;;;5095340;28;19908;-76
2022/04/08 11:10:42;;;;;;;;;;;8.80;99.90;;;;;;5094421;28;19915;-75
2022/04/08 11:13:10;;;;;;;;;;;8.80;99.90;;;;;;5094559;28;19912;-76
2022/04/08 11:15:38;;;;;;;;;;;8.90;99.90;;;;;;5093814;28;19912;-76
2022/04/08 11:18:06;;;;;;;;;;;9.30;99.90;;;;;;5095093;28;19911;-76
2022/04/08 11:20:34;;;;;;;;;;;9.50;99.90;;;;;;5094530;28;20268;-77
2022/04/08 11:23:00;;;;;;;;;;;9.70;99.90;;;;;;5094539;28;19908;-76
2022/04/08 11:25:29;;;;;;;;;;;9.60;99.90;;;;;;5094207;28;19912;-77
2022/04/08 11:28:02;;;;;;;;;;;9.10;99.90;;;;;;5094818;28;19916;-77
2022/04/08 11:30:29;;;;;;;;;;;8.90;99.90;;;;;;5093674;28;19912;-76
2022/04/08 11:32:55;;;;;;;;;;;8.70;99.90;;;;;;5094647;28;19912;-77
2022/04/08 11:35:21;;;;;;;;;;;8.70;99.90;;;;;;5094200;28;19957;-77
2022/04/08 11:37:46;;;;;;;;;;;8.80;99.90;;;;;;5094122;28;19908;-77
2022/04/08 11:40:18;;;;;;;;;;;8.80;99.90;;;;;;5094796;28;19908;-77
2022/04/08 11:42:45;;;;;;;;;;;8.80;99.90;;;;;;5093834;28;20015;-77
2022/04/08 11:45:11;;;;;;;;;;;9.00;99.90;;;;;;5094099;28;19995;-77
2022/04/08 11:47:40;;;;;;;;;;;9.00;99.90;;;;;;5094006;28;19999;-77
2022/04/08 11:50:09;;;;;;;;;;;9.10;99.90;;;;;;5094566;28;19908;-77
2022/04/08 11:52:36;;;;;;;;;;;9.10;99.90;;;;;;5093675;28;19912;-77
2022/04/08 11:55:06;;;;;;;;;;;9.00;99.90;;;;;;5094330;28;19919;-77
2022/04/08 11:57:33;;;;;;;;;;;9.00;99.90;;;;;;5093545;28;19958;-77
2022/04/08 12:00:07;;;;;;;;;;;9.00;99.90;;;;;;5093938;28;19908;-78
2022/04/08 12:02:33;;;;;;;;;;;8.90;99.90;;;;;;5093206;28;19965;-77
2022/04/08 12:04:59;;;;;;;;;;;8.80;99.90;;;;;;5094164;28;19908;-76
2022/04/08 12:07:25;;;;;;;;;;;8.80;99.90;;;;;;5093384;28;19909;-77
2022/04/08 12:09:52;;;;;;;;;;;8.80;99.90;;;;;;5092802;28;20376;-77
2022/04/08 12:12:21;;;;;;;;;;;8.90;99.90;;;;;;5094044;28;19934;-76
2022/04/08 12:14:47;;;;;;;;;;;9.20;99.90;;;;;;5091887;28;19956;-76
2022/04/08 12:17:13;;;;;;;;;;;9.40;99.90;;;;;;5093729;28;20006;-76
2022/04/08 12:19:39;;;;;;;;;;;9.70;99.90;;;;;;5093134;28;19961;-76
2022/04/08 12:22:12;;;;;;;;;;;9.80;99.90;;;;;;5092385;28;19914;-76
2022/04/08 12:24:43;;;;;;;;;;;9.60;99.90;;;;;;5093102;28;19913;-77
2022/04/08 12:27:13;;;;;;;;;;;9.50;99.90;;;;;;5093701;28;19908;-77
2022/04/08 12:29:39;;;;;;;;;;;9.50;99.90;;;;;;5092776;28;19952;-78
2022/04/08 12:32:12;;;;;;;;;;;9.60;99.90;;;;;;5095289;28;20287;-77
2022/04/08 12:34:37;;;;;;;;;;;9.70;99.90;;;;;;5092489;28;20265;-77
2022/04/08 12:37:03;;;;;;;;;;;9.80;99.90;;;;;;5092997;28;19914;-76
2022/04/08 12:39:29;;;;;;;;;;;9.70;99.90;;;;;;5092729;28;19977;-76
2022/04/08 12:41:58;;;;;;;;;;;9.50;99.90;;;;;;5093370;28;20341;-76
2022/04/08 12:44:23;;;;;;;;;;;9.50;99.90;;;;;;5092875;28;19915;-76
2022/04/08 12:46:51;;;;;;;;;;;9.50;99.90;;;;;;5092561;28;19912;-76
2022/04/08 12:49:17;;;;;;;;;;;9.60;99.90;;;;;;5092810;28;19936;-77
2022/04/08 12:51:43;;;;;;;;;;;9.80;99.90;;;;;;5092460;28;19947;-76
2022/04/08 12:54:09;;;;;;;;;;;9.90;99.90;;;;;;5092943;28;19996;-76
2022/04/08 12:56:35;;;;;;;;;;;10.00;99.90;;;;;;5092320;28;20340;-77
2022/04/08 12:59:01;;;;;;;;;;;9.90;99.90;;;;;;5092180;28;19908;-76
2022/04/08 13:01:27;;;;;;;;;;;9.90;99.90;;;;;;5092820;28;19960;-77
2022/04/08 13:03:52;;;;;;;;;;;9.80;99.90;;;;;;5093042;28;19920;-77
2022/04/08 13:06:18;;;;;;;;;;;9.40;99.90;;;;;;5093236;28;19915;-77
2022/04/08 13:08:44;;;;;;;;;;;9.00;99.90;;;;;;5092793;28;20001;-76
2022/04/08 13:11:09;;;;;;;;;;;8.80;99.90;;;;;;5093362;28;20357;-76
2022/04/08 13:13:35;;;;;;;;;;;8.50;99.90;;;;;;5092709;28;19978;-76
2022/04/08 13:16:01;;;;;;;;;;;8.40;99.90;;;;;;5093483;28;20022;-77
2022/04/08 13:18:27;;;;;;;;;;;8.30;99.90;;;;;;5093139;28;20365;-76
2022/04/08 13:20:52;;;;;;;;;;;8.40;99.90;;;;;;5093270;28;19947;-76
2022/04/08 13:23:18;;;;;;;;;;;8.60;99.90;;;;;;5093029;28;20313;-76
2022/04/08 13:25:44;;;;;;;;;;;8.90;99.90;;;;;;5092483;28;20342;-77
2022/04/08 13:28:10;;;;;;;;;;;9.10;99.90;;;;;;5092991;28;19912;-77
2022/04/08 13:30:36;;;;;;;;;;;9.20;99.90;;;;;;5092245;28;19908;-77
2022/04/08 13:33:03;;;;;;;;;;;9.20;99.90;;;;;;5092965;28;19919;-78
2022/04/08 13:35:29;;;;;;;;;;;9.20;99.90;;;;;;5096201;28;19923;-76
2022/04/08 13:37:56;;;;;;;;;;;9.50;99.90;;;;;;5109184;28;19907;-76
2022/04/08 13:40:22;;;;;;;;;;;9.80;99.90;;;;;;5095201;28;20429;-76
2022/04/08 13:42:48;;;;;;;;;;;10.10;99.90;;;;;;5101626;28;20401;-77
2022/04/08 13:45:14;;;;;;;;;;;10.10;99.90;;;;;;5108088;28;19927;-77
2022/04/08 13:47:39;;;;;;;;;;;10.10;99.90;;;;;;5105645;28;19919;-77
2022/04/08 13:50:05;;;;;;;;;;;10.00;99.90;;;;;;5110209;28;19927;-78
2022/04/08 13:52:31;;;;;;;;;;;9.90;99.90;;;;;;5097056;28;19959;-78
2022/04/08 13:54:57;;;;;;;;;;;9.90;99.90;;;;;;5105039;28;20375;-78
2022/04/08 13:57:22;;;;;;;;;;;9.70;99.90;;;;;;5107005;28;20012;-76
2022/04/08 13:59:48;;;;;;;;;;;9.60;99.90;;;;;;5107629;28;19919;-77
2022/04/08 14:02:15;;;;;;;;;;;9.70;99.90;;;;;;5108089;28;20345;-77
2022/04/08 14:04:41;;;;;;;;;;;9.90;99.90;;;;;;5098320;28;20376;-76
2022/04/08 14:07:06;;;;;;;;;;;10.20;99.90;;;;;;5091968;28;20017;-76
2022/04/08 14:09:32;;;;;;;;;;;10.30;99.90;;;;;;5102726;28;20090;-78
2022/04/08 14:11:58;;;;;;;;;;;10.50;99.90;;;;;;5101227;28;19915;-77
2022/04/08 14:14:23;;;;;;;;;;;10.20;99.90;;;;;;5105765;28;19912;-79
2022/04/08 14:16:49;;;;;;;;;;;9.80;99.90;;;;;;5102445;28;19918;-77
2022/04/08 14:19:14;;;;;;;;;;;9.60;99.90;;;;;;5105844;28;20002;-78
2022/04/08 14:21:40;;;;;;;;;;;9.30;99.90;;;;;;5109638;28;19912;-77
2022/04/08 14:24:06;;;;;;;;;;;9.10;99.90;;;;;;5109581;28;19966;-78